sensor_id;sensor_type;location;lat;lon;timestamp;temperature;humidity
3262;DHT22;1643;47.746;9.000;2022-08-19T00:00:27;19.80;99.90
3262;DHT22;1643;47.746;9.000;2022-08-19T00:02:53;19.90;99.90
3262;DHT22;1643;47.746;9.000;2022-08-19T00:05:20;19.80;99.90
3262;DHT22;1643;47.746;9.000;2022-08-19T00:07:47;19.90;99.90
3262;DHT22;1643;47.746;9.000;2022-08-19T00:10:15;19.90;99.90
3262;DHT22;1643;47.746;9.000;2022-08-19T00:12:42;19.80;99.90
3262;DHT22;1643;47.746;9.000;2022-08-19T00:15:13;19.70;99.90
3262;DHT22;1643;47.746;9.000;2022-08-19T00:17:40;19.70;99.90
3262;DHT22;1643;47.746;9.000;2022-08-19T00:20:07;19.70;99.90
3262;DHT22;1643;47.746;9.000;2022-08-19T00:22:37;19.70;99.90
3262;DHT22;1643;47.746;9.000;2022-08-19T00:25:05;19.70;99.90
3262;DHT22;1643;47.746;9.000;2022-08-19T00:27:31;19.70;99.90
3262;DHT22;1643;47.746;9.000;2022-08-19T00:29:56;19.70;99.90
3262;DHT22;1643;47.746;9.000;2022-08-19T00:32:24;19.80;99.90
3262;DHT22;1643;47.746;9.000;2022-08-19T00:34:50;19.80;99.90
3262;DHT22;1643;47.746;9.000;2022-08-19T00:37:20;19.80;99.90
3262;DHT22;1643;47.746;9.000;2022-08-19T00:39:48;19.80;99.90
3262;DHT22;1643;47.746;9.000;2022-08-19T00:42:14;19.70;99.90
3262;DHT22;1643;47.746;9.000;2022-08-19T00:44:41;19.70;99.90
3262;DHT22;1643;47.746;9.000;2022-08-19T00:47:08;19.70;99.90
3262;DHT22;1643;47.746;9.000;2022-08-19T00:49:37;19.80;99.90
3262;DHT22;1643;47.746;9.000;2022-08-19T00:52:14;19.80;99.90
3262;DHT22;1643;47.746;9.000;2022-08-19T00:54:41;19.80;99.90
3262;DHT22;1643;47.746;9.000;2022-08-19T00:57:12;19.80;99.90
3262;DHT22;1643;47.746;9.000;2022-08-19T00:59:42;19.70;99.90
3262;DHT22;1643;47.746;9.000;2022-08-19T01:02:11;19.80;99.90
3262;DHT22;1643;47.746;9.000;2022-08-19T01:04:37;19.80;99.90
3262;DHT22;1643;47.746;9.000;2022-08-19T01:07:03;19.80;99.90
3262;DHT22;1643;47.746;9.000;2022-08-19T01:09:29;19.80;99.90
3262;DHT22;1643;47.746;9.000;2022-08-19T01:11:56;19.80;99.90
3262;DHT22;1643;47.746;9.000;2022-08-19T01:14:23;19.70;99.90
3262;DHT22;1643;47.746;9.000;2022-08-19T01:16:49;19.70;99.90
3262;DHT22;1643;47.746;9.000;2022-08-19T01:19:27;19.70;99.90
3262;DHT22;1643;47.746;9.000;2022-08-19T01:24:48;19.70;99.90
3262;DHT22;1643;47.746;9.000;2022-08-19T01:27:14;19.70;99.90
3262;DHT22;1643;47.746;9.000;2022-08-19T01:29:41;19.70;99.90
3262;DHT22;1643;47.746;9.000;2022-08-19T01:32:10;19.70;99.90
3262;DHT22;1643;47.746;9.000;2022-08-19T01:34:37;19.70;99.90
3262;DHT22;1643;47.746;9.000;2022-08-19T01:37:07;19.70;99.90
3262;DHT22;1643;47.746;9.000;2022-08-19T01:39:34;19.60;99.90
3262;DHT22;1643;47.746;9.000;2022-08-19T01:41:59;19.70;99.90
3262;DHT22;1643;47.746;9.000;2022-08-19T01:44:28;19.70;99.90
3262;DHT22;1643;47.746;9.000;2022-08-19T01:46:54;19.70;99.90
3262;DHT22;1643;47.746;9.000;2022-08-19T01:49:24;19.70;99.90
3262;DHT22;1643;47.746;9.000;2022-08-19T01:51:52;19.70;99.90
3262;DHT22;1643;47.746;9.000;2022-08-19T01:54:20;19.70;99.90
3262;DHT22;1643;47.746;9.000;2022-08-19T01:56:46;19.70;99.90
3262;DHT22;1643;47.746;9.000;2022-08-19T01:59:19;19.70;99.90
3262;DHT22;1643;47.746;9.000;2022-08-19T02:01:45;19.70;99.90
3262;DHT22;1643;47.746;9.000;2022-08-19T02:04:11;19.70;99.90
3262;DHT22;1643;47.746;9.000;2022-08-19T02:06:37;19.70;99.90
3262;DHT22;1643;47.746;9.000;2022-08-19T02:09:04;19.70;99.90
3262;DHT22;1643;47.746;9.000;2022-08-19T02:11:33;19.60;99.90
3262;DHT22;1643;47.746;9.000;2022-08-19T02:14:00;19.60;99.90
3262;DHT22;1643;47.746;9.000;2022-08-19T02:16:27;19.60;99.90
3262;DHT22;1643;47.746;9.000;2022-08-19T02:18:53;19.60;99.90
3262;DHT22;1643;47.746;9.000;2022-08-19T02:21:22;19.60;99.90
3262;DHT22;1643;47.746;9.000;2022-08-19T02:23:48;19.60;99.90
3262;DHT22;1643;47.746;9.000;2022-08-19T02:26:15;19.60;99.90
3262;DHT22;1643;47.746;9.000;2022-08-19T02:28:42;19.60;99.90
3262;DHT22;1643;47.746;9.000;2022-08-19T02:31:16;19.60;99.90
3262;DHT22;1643;47.746;9.000;2022-08-19T02:33:43;19.60;99.90
3262;DHT22;1643;47.746;9.000;2022-08-19T02:36:10;19.60;99.90
3262;DHT22;1643;47.746;9.000;2022-08-19T02:38:37;19.60;99.90
3262;DHT22;1643;47.746;9.000;2022-08-19T02:41:06;19.60;99.90
3262;DHT22;1643;47.746;9.000;2022-08-19T02:43:33;19.60;99.90
3262;DHT22;1643;47.746;9.000;2022-08-19T02:46:14;19.60;99.90
3262;DHT22;1643;47.746;9.000;2022-08-19T02:48:41;19.70;99.90
3262;DHT22;1643;47.746;9.000;2022-08-19T02:51:06;19.70;99.90
3262;DHT22;1643;47.746;9.000;2022-08-19T02:53:32;19.70;99.90
3262;DHT22;1643;47.746;9.000;2022-08-19T02:55:58;19.60;99.90
3262;DHT22;1643;47.746;9.000;2022-08-19T02:58:23;19.60;99.90
3262;DHT22;1643;47.746;9.000;2022-08-19T03:00:52;19.60;99.90
3262;DHT22;1643;47.746;9.000;2022-08-19T03:03:19;19.60;99.90
3262;DHT22;1643;47.746;9.000;2022-08-19T03:05:45;19.70;99.90
3262;DHT22;1643;47.746;9.000;2022-08-19T03:08:12;19.70;99.90
3262;DHT22;1643;47.746;9.000;2022-08-19T03:10:43;19.60;99.90
3262;DHT22;1643;47.746;9.000;2022-08-19T03:13:11;19.60;99.90
3262;DHT22;1643;47.746;9.000;2022-08-19T03:15:43;19.60;99.90
3262;DHT22;1643;47.746;9.000;2022-08-19T03:18:09;19.60;99.90
3262;DHT22;1643;47.746;9.000;2022-08-19T03:20:43;19.60;99.90
3262;DHT22;1643;47.746;9.000;2022-08-19T03:23:11;19.70;99.90
3262;DHT22;1643;47.746;9.000;2022-08-19T03:25:42;19.60;99.90
3262;DHT22;1643;47.746;9.000;2022-08-19T03:28:10;19.70;99.90
3262;DHT22;1643;47.746;9.000;2022-08-19T03:30:38;19.60;99.90
3262;DHT22;1643;47.746;9.000;2022-08-19T03:33:07;19.70;99.90
3262;DHT22;1643;47.746;9.000;2022-08-19T03:35:33;19.60;99.90
3262;DHT22;1643;47.746;9.000;2022-08-19T03:38:03;19.60;99.90
3262;DHT22;1643;47.746;9.000;2022-08-19T03:40:28;19.60;99.90
3262;DHT22;1643;47.746;9.000;2022-08-19T03:42:56;19.60;99.90
3262;DHT22;1643;47.746;9.000;2022-08-19T03:45:22;19.60;99.90
3262;DHT22;1643;47.746;9.000;2022-08-19T03:47:48;19.60;99.90
3262;DHT22;1643;47.746;9.000;2022-08-19T03:50:14;19.60;99.90
3262;DHT22;1643;47.746;9.000;2022-08-19T03:52:40;19.60;99.90
3262;DHT22;1643;47.746;9.000;2022-08-19T03:55:06;19.60;99.90
3262;DHT22;1643;47.746;9.000;2022-08-19T03:57:33;19.60;99.90
3262;DHT22;1643;47.746;9.000;2022-08-19T04:00:00;19.60;99.90
3262;DHT22;1643;47.746;9.000;2022-08-19T04:02:26;19.60;99.90
3262;DHT22;1643;47.746;9.000;2022-08-19T04:04:53;19.50;99.90
3262;DHT22;1643;47.746;9.000;2022-08-19T04:07:20;19.50;99.90
3262;DHT22;1643;47.746;9.000;2022-08-19T04:09:47;19.40;99.90
3262;DHT22;1643;47.746;9.000;2022-08-19T04:12:13;19.50;99.90
3262;DHT22;1643;47.746;9.000;2022-08-19T04:14:40;19.50;99.90
3262;DHT22;1643;47.746;9.000;2022-08-19T04:17:07;19.50;99.90
3262;DHT22;1643;47.746;9.000;2022-08-19T04:19:35;19.50;99.90
3262;DHT22;1643;47.746;9.000;2022-08-19T04:22:02;19.50;99.90
3262;DHT22;1643;47.746;9.000;2022-08-19T04:24:28;19.60;99.90
3262;DHT22;1643;47.746;9.000;2022-08-19T04:26:53;19.60;99.90
3262;DHT22;1643;47.746;9.000;2022-08-19T04:29:24;19.60;99.90
3262;DHT22;1643;47.746;9.000;2022-08-19T04:31:51;19.60;99.90
3262;DHT22;1643;47.746;9.000;2022-08-19T04:34:20;19.60;99.90
3262;DHT22;1643;47.746;9.000;2022-08-19T04:36:50;19.60;99.90
3262;DHT22;1643;47.746;9.000;2022-08-19T04:39:25;19.60;99.90
3262;DHT22;1643;47.746;9.000;2022-08-19T04:42:11;19.60;99.90
3262;DHT22;1643;47.746;9.000;2022-08-19T04:44:56;19.60;99.90
3262;DHT22;1643;47.746;9.000;2022-08-19T04:47:21;19.50;99.90
3262;DHT22;1643;47.746;9.000;2022-08-19T04:49:47;19.50;99.90
3262;DHT22;1643;47.746;9.000;2022-08-19T04:52:14;19.50;99.90
3262;DHT22;1643;47.746;9.000;2022-08-19T04:54:39;19.50;99.90
3262;DHT22;1643;47.746;9.000;2022-08-19T04:57:07;19.50;99.90
3262;DHT22;1643;47.746;9.000;2022-08-19T04:59:36;19.50;99.90
3262;DHT22;1643;47.746;9.000;2022-08-19T05:02:03;19.50;99.90
3262;DHT22;1643;47.746;9.000;2022-08-19T05:04:29;19.50;99.90
3262;DHT22;1643;47.746;9.000;2022-08-19T05:06:57;19.50;99.90
3262;DHT22;1643;47.746;9.000;2022-08-19T05:09:22;19.50;99.90
3262;DHT22;1643;47.746;9.000;2022-08-19T05:11:48;19.50;99.90
3262;DHT22;1643;47.746;9.000;2022-08-19T05:14:16;19.60;99.90
3262;DHT22;1643;47.746;9.000;2022-08-19T05:16:42;19.60;99.90
3262;DHT22;1643;47.746;9.000;2022-08-19T05:19:07;19.50;99.90
3262;DHT22;1643;47.746;9.000;2022-08-19T05:21:52;19.50;99.90
3262;DHT22;1643;47.746;9.000;2022-08-19T05:24:36;19.60;99.90
3262;DHT22;1643;47.746;9.000;2022-08-19T05:27:02;19.60;99.90
3262;DHT22;1643;47.746;9.000;2022-08-19T05:29:29;19.60;99.90
3262;DHT22;1643;47.746;9.000;2022-08-19T05:31:55;19.60;99.90
3262;DHT22;1643;47.746;9.000;2022-08-19T05:34:22;19.60;99.90
3262;DHT22;1643;47.746;9.000;2022-08-19T05:36:55;19.60;99.90
3262;DHT22;1643;47.746;9.000;2022-08-19T05:39:24;19.60;99.90
3262;DHT22;1643;47.746;9.000;2022-08-19T05:41:56;19.50;99.90
3262;DHT22;1643;47.746;9.000;2022-08-19T05:44:24;19.50;99.90
3262;DHT22;1643;47.746;9.000;2022-08-19T05:46:50;19.50;99.90
3262;DHT22;1643;47.746;9.000;2022-08-19T05:49:21;19.50;99.90
3262;DHT22;1643;47.746;9.000;2022-08-19T05:51:48;19.40;99.90
3262;DHT22;1643;47.746;9.000;2022-08-19T05:54:14;19.40;99.90
3262;DHT22;1643;47.746;9.000;2022-08-19T05:56:40;19.40;99.90
3262;DHT22;1643;47.746;9.000;2022-08-19T05:59:09;19.40;99.90
3262;DHT22;1643;47.746;9.000;2022-08-19T06:01:35;19.30;99.90
3262;DHT22;1643;47.746;9.000;2022-08-19T06:04:02;19.30;99.90
3262;DHT22;1643;47.746;9.000;2022-08-19T06:06:28;19.40;99.90
3262;DHT22;1643;47.746;9.000;2022-08-19T06:08:53;19.40;99.90
3262;DHT22;1643;47.746;9.000;2022-08-19T06:11:31;19.40;99.90
3262;DHT22;1643;47.746;9.000;2022-08-19T06:14:01;19.40;99.90
3262;DHT22;1643;47.746;9.000;2022-08-19T06:16:27;19.50;99.90
3262;DHT22;1643;47.746;9.000;2022-08-19T06:18:56;19.50;99.90
3262;DHT22;1643;47.746;9.000;2022-08-19T06:21:25;19.50;99.90
3262;DHT22;1643;47.746;9.000;2022-08-19T06:23:52;19.50;99.90
3262;DHT22;1643;47.746;9.000;2022-08-19T06:26:20;19.50;99.90
3262;DHT22;1643;47.746;9.000;2022-08-19T06:28:46;19.50;99.90
3262;DHT22;1643;47.746;9.000;2022-08-19T06:31:19;19.50;99.90
3262;DHT22;1643;47.746;9.000;2022-08-19T06:33:46;19.50;99.90
3262;DHT22;1643;47.746;9.000;2022-08-19T06:36:25;19.50;99.90
3262;DHT22;1643;47.746;9.000;2022-08-19T06:39:14;19.50;99.90
3262;DHT22;1643;47.746;9.000;2022-08-19T06:41:42;19.50;99.90
3262;DHT22;1643;47.746;9.000;2022-08-19T06:44:08;19.50;99.90
3262;DHT22;1643;47.746;9.000;2022-08-19T06:46:35;19.60;99.90
3262;DHT22;1643;47.746;9.000;2022-08-19T06:49:02;19.50;99.90
3262;DHT22;1643;47.746;9.000;2022-08-19T06:51:28;19.50;99.90
3262;DHT22;1643;47.746;9.000;2022-08-19T06:53:55;19.50;99.90
3262;DHT22;1643;47.746;9.000;2022-08-19T06:56:24;19.60;99.90
3262;DHT22;1643;47.746;9.000;2022-08-19T06:58:51;19.70;99.90
3262;DHT22;1643;47.746;9.000;2022-08-19T07:01:18;19.70;99.90
3262;DHT22;1643;47.746;9.000;2022-08-19T07:03:44;19.70;99.90
3262;DHT22;1643;47.746;9.000;2022-08-19T07:06:14;19.80;99.90
3262;DHT22;1643;47.746;9.000;2022-08-19T07:08:43;19.90;99.90
3262;DHT22;1643;47.746;9.000;2022-08-19T07:11:11;19.80;99.90
3262;DHT22;1643;47.746;9.000;2022-08-19T07:13:39;19.80;99.90
3262;DHT22;1643;47.746;9.000;2022-08-19T07:16:11;19.80;99.90
3262;DHT22;1643;47.746;9.000;2022-08-19T07:18:38;19.80;99.90
3262;DHT22;1643;47.746;9.000;2022-08-19T07:21:08;19.80;99.90
3262;DHT22;1643;47.746;9.000;2022-08-19T07:23:34;19.80;99.90
3262;DHT22;1643;47.746;9.000;2022-08-19T07:26:15;19.80;99.90
3262;DHT22;1643;47.746;9.000;2022-08-19T07:28:41;19.90;99.90
3262;DHT22;1643;47.746;9.000;2022-08-19T07:31:11;19.90;99.90
3262;DHT22;1643;47.746;9.000;2022-08-19T07:33:38;19.90;99.90
3262;DHT22;1643;47.746;9.000;2022-08-19T07:36:08;20.00;99.90
3262;DHT22;1643;47.746;9.000;2022-08-19T07:38:37;20.00;99.90
3262;DHT22;1643;47.746;9.000;2022-08-19T07:41:05;20.00;99.90
3262;DHT22;1643;47.746;9.000;2022-08-19T07:43:30;20.00;99.90
3262;DHT22;1643;47.746;9.000;2022-08-19T07:45:57;20.00;99.90
3262;DHT22;1643;47.746;9.000;2022-08-19T07:48:27;20.00;99.90
3262;DHT22;1643;47.746;9.000;2022-08-19T07:50:58;19.90;99.90
3262;DHT22;1643;47.746;9.000;2022-08-19T07:53:28;19.90;99.90
3262;DHT22;1643;47.746;9.000;2022-08-19T07:55:54;19.80;99.90
3262;DHT22;1643;47.746;9.000;2022-08-19T07:58:21;19.70;99.90
3262;DHT22;1643;47.746;9.000;2022-08-19T08:00:49;19.60;99.90
3262;DHT22;1643;47.746;9.000;2022-08-19T08:03:17;19.60;99.90
3262;DHT22;1643;47.746;9.000;2022-08-19T08:05:43;19.60;99.90
3262;DHT22;1643;47.746;9.000;2022-08-19T08:08:28;19.50;99.90
3262;DHT22;1643;47.746;9.000;2022-08-19T08:11:13;19.50;99.90
3262;DHT22;1643;47.746;9.000;2022-08-19T08:13:39;19.60;99.90
3262;DHT22;1643;47.746;9.000;2022-08-19T08:16:07;19.60;99.90
3262;DHT22;1643;47.746;9.000;2022-08-19T08:18:33;19.70;99.90
3262;DHT22;1643;47.746;9.000;2022-08-19T08:20:59;19.70;99.90
3262;DHT22;1643;47.746;9.000;2022-08-19T08:23:25;19.80;99.90
3262;DHT22;1643;47.746;9.000;2022-08-19T08:25:53;19.90;99.90
3262;DHT22;1643;47.746;9.000;2022-08-19T08:28:20;19.90;99.90
3262;DHT22;1643;47.746;9.000;2022-08-19T08:30:47;19.90;99.90
3262;DHT22;1643;47.746;9.000;2022-08-19T08:33:20;19.90;99.90
3262;DHT22;1643;47.746;9.000;2022-08-19T08:35:47;20.00;99.90
3262;DHT22;1643;47.746;9.000;2022-08-19T08:38:13;20.10;99.90
3262;DHT22;1643;47.746;9.000;2022-08-19T08:40:47;20.10;99.90
3262;DHT22;1643;47.746;9.000;2022-08-19T08:48:41;20.10;99.90
3262;DHT22;1643;47.746;9.000;2022-08-19T08:51:14;20.10;99.90
3262;DHT22;1643;47.746;9.000;2022-08-19T08:53:42;20.10;99.90
3262;DHT22;1643;47.746;9.000;2022-08-19T08:56:10;20.00;99.90
3262;DHT22;1643;47.746;9.000;2022-08-19T08:58:54;19.90;99.90
3262;DHT22;1643;47.746;9.000;2022-08-19T09:01:21;20.00;99.90
3262;DHT22;1643;47.746;9.000;2022-08-19T09:03:47;20.00;99.90
3262;DHT22;1643;47.746;9.000;2022-08-19T09:09:13;20.00;99.90
3262;DHT22;1643;47.746;9.000;2022-08-19T09:12:04;20.00;99.90
3262;DHT22;1643;47.746;9.000;2022-08-19T09:14:35;19.90;99.90
3262;DHT22;1643;47.746;9.000;2022-08-19T09:17:03;19.90;99.90
3262;DHT22;1643;47.746;9.000;2022-08-19T09:19:34;19.90;99.90
3262;DHT22;1643;47.746;9.000;2022-08-19T09:22:00;19.90;99.90
3262;DHT22;1643;47.746;9.000;2022-08-19T09:24:26;19.90;99.90
3262;DHT22;1643;47.746;9.000;2022-08-19T09:26:52;19.90;99.90
3262;DHT22;1643;47.746;9.000;2022-08-19T09:29:18;19.90;99.90
3262;DHT22;1643;47.746;9.000;2022-08-19T09:31:43;19.90;99.90
3262;DHT22;1643;47.746;9.000;2022-08-19T09:34:09;19.90;99.90
3262;DHT22;1643;47.746;9.000;2022-08-19T09:36:35;19.90;99.90
3262;DHT22;1643;47.746;9.000;2022-08-19T09:39:05;19.90;99.90
3262;DHT22;1643;47.746;9.000;2022-08-19T09:41:31;19.90;99.90
3262;DHT22;1643;47.746;9.000;2022-08-19T09:43:58;19.80;99.90
3262;DHT22;1643;47.746;9.000;2022-08-19T09:46:25;19.70;99.90
3262;DHT22;1643;47.746;9.000;2022-08-19T09:48:52;19.60;99.90
3262;DHT22;1643;47.746;9.000;2022-08-19T09:51:22;19.60;99.90
3262;DHT22;1643;47.746;9.000;2022-08-19T09:53:49;19.70;99.90
3262;DHT22;1643;47.746;9.000;2022-08-19T09:56:22;19.70;99.90
3262;DHT22;1643;47.746;9.000;2022-08-19T09:58:48;19.70;99.90
3262;DHT22;1643;47.746;9.000;2022-08-19T10:01:20;19.80;99.90
3262;DHT22;1643;47.746;9.000;2022-08-19T10:03:49;20.00;99.90
3262;DHT22;1643;47.746;9.000;2022-08-19T10:06:15;20.00;99.90
3262;DHT22;1643;47.746;9.000;2022-08-19T10:08:42;19.90;99.90
3262;DHT22;1643;47.746;9.000;2022-08-19T10:11:09;19.90;99.90
3262;DHT22;1643;47.746;9.000;2022-08-19T10:13:35;19.90;99.90
3262;DHT22;1643;47.746;9.000;2022-08-19T10:16:06;19.80;99.90
3262;DHT22;1643;47.746;9.000;2022-08-19T10:18:32;19.80;99.90
3262;DHT22;1643;47.746;9.000;2022-08-19T10:21:21;19.80;99.90
3262;DHT22;1643;47.746;9.000;2022-08-19T10:23:50;19.70;99.90
3262;DHT22;1643;47.746;9.000;2022-08-19T10:26:22;19.70;99.90
3262;DHT22;1643;47.746;9.000;2022-08-19T10:28:48;19.70;99.90
3262;DHT22;1643;47.746;9.000;2022-08-19T10:31:18;19.80;99.90
3262;DHT22;1643;47.746;9.000;2022-08-19T10:33:45;19.70;99.90
3262;DHT22;1643;47.746;9.000;2022-08-19T10:36:16;19.70;99.90
3262;DHT22;1643;47.746;9.000;2022-08-19T10:38:44;19.50;99.90
3262;DHT22;1643;47.746;9.000;2022-08-19T10:41:20;19.50;99.90
3262;DHT22;1643;47.746;9.000;2022-08-19T10:43:47;19.60;99.90
3262;DHT22;1643;47.746;9.000;2022-08-19T10:46:16;19.60;99.90
3262;DHT22;1643;47.746;9.000;2022-08-19T10:48:43;19.70;99.90
3262;DHT22;1643;47.746;9.000;2022-08-19T10:51:09;19.80;99.90
3262;DHT22;1643;47.746;9.000;2022-08-19T10:53:54;19.80;99.90
3262;DHT22;1643;47.746;9.000;2022-08-19T10:56:21;19.80;99.90
3262;DHT22;1643;47.746;9.000;2022-08-19T10:59:05;19.80;99.90
3262;DHT22;1643;47.746;9.000;2022-08-19T11:01:32;19.80;99.90
3262;DHT22;1643;47.746;9.000;2022-08-19T11:04:00;19.80;99.90
3262;DHT22;1643;47.746;9.000;2022-08-19T11:06:26;19.70;99.90
3262;DHT22;1643;47.746;9.000;2022-08-19T11:08:53;19.70;99.90
3262;DHT22;1643;47.746;9.000;2022-08-19T11:11:19;19.70;99.90
3262;DHT22;1643;47.746;9.000;2022-08-19T11:13:45;19.60;99.90
3262;DHT22;1643;47.746;9.000;2022-08-19T11:16:14;19.60;99.90
3262;DHT22;1643;47.746;9.000;2022-08-19T11:18:52;19.60;99.90
3262;DHT22;1643;47.746;9.000;2022-08-19T11:21:38;19.60;99.90
3262;DHT22;1643;47.746;9.000;2022-08-19T11:24:08;19.40;99.90
3262;DHT22;1643;47.746;9.000;2022-08-19T11:26:35;19.40;99.90
3262;DHT22;1643;47.746;9.000;2022-08-19T11:29:01;19.40;99.90
3262;DHT22;1643;47.746;9.000;2022-08-19T11:31:30;19.40;99.90
3262;DHT22;1643;47.746;9.000;2022-08-19T11:34:00;19.30;99.90
3262;DHT22;1643;47.746;9.000;2022-08-19T11:36:27;19.30;99.90
3262;DHT22;1643;47.746;9.000;2022-08-19T11:38:53;19.20;99.90
3262;DHT22;1643;47.746;9.000;2022-08-19T11:41:20;19.30;99.90
3262;DHT22;1643;47.746;9.000;2022-08-19T11:43:48;19.20;99.90
3262;DHT22;1643;47.746;9.000;2022-08-19T11:46:15;19.20;99.90
3262;DHT22;1643;47.746;9.000;2022-08-19T11:48:41;19.30;99.90
3262;DHT22;1643;47.746;9.000;2022-08-19T11:51:09;19.30;99.90
3262;DHT22;1643;47.746;9.000;2022-08-19T11:53:36;19.20;99.90
3262;DHT22;1643;47.746;9.000;2022-08-19T11:56:04;19.20;99.90
3262;DHT22;1643;47.746;9.000;2022-08-19T11:58:30;19.20;99.90
3262;DHT22;1643;47.746;9.000;2022-08-19T12:00:55;19.30;99.90
3262;DHT22;1643;47.746;9.000;2022-08-19T12:03:21;19.30;99.90
3262;DHT22;1643;47.746;9.000;2022-08-19T12:05:47;19.40;99.90
3262;DHT22;1643;47.746;9.000;2022-08-19T12:08:14;19.40;99.90
3262;DHT22;1643;47.746;9.000;2022-08-19T12:10:40;19.40;99.90
3262;DHT22;1643;47.746;9.000;2022-08-19T12:13:08;19.30;99.90
3262;DHT22;1643;47.746;9.000;2022-08-19T12:15:40;19.30;99.90
3262;DHT22;1643;47.746;9.000;2022-08-19T12:18:10;19.30;99.90
3262;DHT22;1643;47.746;9.000;2022-08-19T12:20:38;19.40;99.90
3262;DHT22;1643;47.746;9.000;2022-08-19T12:23:06;19.40;99.90
3262;DHT22;1643;47.746;9.000;2022-08-19T12:25:32;19.40;99.90
3262;DHT22;1643;47.746;9.000;2022-08-19T12:27:58;19.40;99.90
3262;DHT22;1643;47.746;9.000;2022-08-19T12:30:24;19.50;99.90
3262;DHT22;1643;47.746;9.000;2022-08-19T12:32:50;19.50;99.90
3262;DHT22;1643;47.746;9.000;2022-08-19T12:35:17;19.40;99.90
3262;DHT22;1643;47.746;9.000;2022-08-19T12:37:45;19.40;99.90
3262;DHT22;1643;47.746;9.000;2022-08-19T12:40:12;19.40;99.90
3262;DHT22;1643;47.746;9.000;2022-08-19T12:42:39;19.40;99.90
3262;DHT22;1643;47.746;9.000;2022-08-19T12:45:09;19.40;99.90
3262;DHT22;1643;47.746;9.000;2022-08-19T12:47:36;19.40;99.90
3262;DHT22;1643;47.746;9.000;2022-08-19T12:50:02;19.40;99.90
3262;DHT22;1643;47.746;9.000;2022-08-19T12:52:27;19.40;99.90
3262;DHT22;1643;47.746;9.000;2022-08-19T12:54:55;19.50;99.90
3262;DHT22;1643;47.746;9.000;2022-08-19T12:57:25;19.50;99.90
3262;DHT22;1643;47.746;9.000;2022-08-19T12:59:54;19.60;99.90
3262;DHT22;1643;47.746;9.000;2022-08-19T13:02:20;19.60;99.90
3262;DHT22;1643;47.746;9.000;2022-08-19T13:04:47;19.60;99.90
3262;DHT22;1643;47.746;9.000;2022-08-19T13:07:13;19.60;99.90
3262;DHT22;1643;47.746;9.000;2022-08-19T13:09:39;19.60;99.90
3262;DHT22;1643;47.746;9.000;2022-08-19T13:12:07;19.60;99.90
3262;DHT22;1643;47.746;9.000;2022-08-19T13:14:38;19.70;99.90
3262;DHT22;1643;47.746;9.000;2022-08-19T13:17:06;19.70;99.90
3262;DHT22;1643;47.746;9.000;2022-08-19T13:19:32;19.70;99.90
3262;DHT22;1643;47.746;9.000;2022-08-19T13:21:57;19.70;99.90
3262;DHT22;1643;47.746;9.000;2022-08-19T13:24:24;19.70;99.90
3262;DHT22;1643;47.746;9.000;2022-08-19T13:26:50;19.60;99.90
3262;DHT22;1643;47.746;9.000;2022-08-19T13:29:15;19.70;99.90
3262;DHT22;1643;47.746;9.000;2022-08-19T13:31:59;19.70;99.90
3262;DHT22;1643;47.746;9.000;2022-08-19T13:34:43;19.70;99.90
3262;DHT22;1643;47.746;9.000;2022-08-19T13:37:11;19.70;99.90
3262;DHT22;1643;47.746;9.000;2022-08-19T13:39:37;19.70;99.90
3262;DHT22;1643;47.746;9.000;2022-08-19T13:42:03;19.70;99.90
3262;DHT22;1643;47.746;9.000;2022-08-19T13:44:30;19.80;99.90
3262;DHT22;1643;47.746;9.000;2022-08-19T13:47:03;19.80;99.90
3262;DHT22;1643;47.746;9.000;2022-08-19T13:49:33;19.90;99.90
3262;DHT22;1643;47.746;9.000;2022-08-19T13:51:59;20.00;99.90
3262;DHT22;1643;47.746;9.000;2022-08-19T13:54:25;20.10;99.90
3262;DHT22;1643;47.746;9.000;2022-08-19T13:56:52;20.10;99.90
3262;DHT22;1643;47.746;9.000;2022-08-19T13:59:20;20.20;99.90
3262;DHT22;1643;47.746;9.000;2022-08-19T14:01:46;20.20;99.90
3262;DHT22;1643;47.746;9.000;2022-08-19T14:04:11;20.20;99.90
3262;DHT22;1643;47.746;9.000;2022-08-19T14:06:37;20.20;99.90
3262;DHT22;1643;47.746;9.000;2022-08-19T14:09:03;20.20;99.90
3262;DHT22;1643;47.746;9.000;2022-08-19T14:11:30;20.10;99.90
3262;DHT22;1643;47.746;9.000;2022-08-19T14:13:55;19.90;99.90
3262;DHT22;1643;47.746;9.000;2022-08-19T14:16:21;19.80;99.90
3262;DHT22;1643;47.746;9.000;2022-08-19T14:18:47;19.70;99.90
3262;DHT22;1643;47.746;9.000;2022-08-19T14:21:19;19.80;99.90
3262;DHT22;1643;47.746;9.000;2022-08-19T14:23:46;19.80;99.90
3262;DHT22;1643;47.746;9.000;2022-08-19T14:26:14;19.80;99.90
3262;DHT22;1643;47.746;9.000;2022-08-19T14:28:41;19.90;99.90
3262;DHT22;1643;47.746;9.000;2022-08-19T14:31:11;20.00;99.90
3262;DHT22;1643;47.746;9.000;2022-08-19T14:33:38;20.00;99.90
3262;DHT22;1643;47.746;9.000;2022-08-19T14:36:04;20.00;99.90
3262;DHT22;1643;47.746;9.000;2022-08-19T14:38:30;20.00;99.90
3262;DHT22;1643;47.746;9.000;2022-08-19T14:41:13;20.00;99.90
3262;DHT22;1643;47.746;9.000;2022-08-19T14:43:39;20.00;99.90
3262;DHT22;1643;47.746;9.000;2022-08-19T14:46:06;20.00;99.90
3262;DHT22;1643;47.746;9.000;2022-08-19T14:48:33;20.00;99.90
3262;DHT22;1643;47.746;9.000;2022-08-19T14:51:01;19.90;99.90
3262;DHT22;1643;47.746;9.000;2022-08-19T14:53:27;19.90;99.90
3262;DHT22;1643;47.746;9.000;2022-08-19T14:55:52;19.80;99.90
3262;DHT22;1643;47.746;9.000;2022-08-19T14:58:18;19.70;99.90
3262;DHT22;1643;47.746;9.000;2022-08-19T15:00:43;19.70;99.90
3262;DHT22;1643;47.746;9.000;2022-08-19T15:03:09;19.70;99.90
3262;DHT22;1643;47.746;9.000;2022-08-19T15:05:35;19.80;99.90
3262;DHT22;1643;47.746;9.000;2022-08-19T15:08:04;19.70;99.90
3262;DHT22;1643;47.746;9.000;2022-08-19T15:10:30;19.80;99.90
3262;DHT22;1643;47.746;9.000;2022-08-19T15:12:56;19.80;99.90
3262;DHT22;1643;47.746;9.000;2022-08-19T15:15:21;19.70;99.90
3262;DHT22;1643;47.746;9.000;2022-08-19T15:17:48;19.70;99.90
3262;DHT22;1643;47.746;9.000;2022-08-19T15:20:17;19.70;99.90
3262;DHT22;1643;47.746;9.000;2022-08-19T15:22:44;19.70;99.90
3262;DHT22;1643;47.746;9.000;2022-08-19T15:25:13;19.70;99.90
3262;DHT22;1643;47.746;9.000;2022-08-19T15:27:39;19.70;99.90
3262;DHT22;1643;47.746;9.000;2022-08-19T15:30:08;19.80;99.90
3262;DHT22;1643;47.746;9.000;2022-08-19T15:32:34;19.80;99.90
3262;DHT22;1643;47.746;9.000;2022-08-19T15:35:00;19.80;99.90
3262;DHT22;1643;47.746;9.000;2022-08-19T15:37:28;19.80;99.90
3262;DHT22;1643;47.746;9.000;2022-08-19T15:39:54;19.90;99.90
3262;DHT22;1643;47.746;9.000;2022-08-19T15:42:19;19.80;99.90
3262;DHT22;1643;47.746;9.000;2022-08-19T15:44:46;19.70;99.90
3262;DHT22;1643;47.746;9.000;2022-08-19T15:47:12;19.70;99.90
3262;DHT22;1643;47.746;9.000;2022-08-19T15:49:38;19.80;99.90
3262;DHT22;1643;47.746;9.000;2022-08-19T15:52:04;19.90;99.90
3262;DHT22;1643;47.746;9.000;2022-08-19T15:54:32;20.00;99.90
3262;DHT22;1643;47.746;9.000;2022-08-19T15:56:58;20.10;99.90
3262;DHT22;1643;47.746;9.000;2022-08-19T15:59:42;20.00;99.90
3262;DHT22;1643;47.746;9.000;2022-08-19T16:02:27;20.00;99.90
3262;DHT22;1643;47.746;9.000;2022-08-19T16:05:16;20.00;99.90
3262;DHT22;1643;47.746;9.000;2022-08-19T16:08:00;20.10;99.90
3262;DHT22;1643;47.746;9.000;2022-08-19T16:10:26;20.00;99.90
3262;DHT22;1643;47.746;9.000;2022-08-19T16:12:52;20.10;99.90
3262;DHT22;1643;47.746;9.000;2022-08-19T16:15:18;20.10;99.90
3262;DHT22;1643;47.746;9.000;2022-08-19T16:17:45;20.20;99.90
3262;DHT22;1643;47.746;9.000;2022-08-19T16:20:12;20.10;99.90